sensor_id;sensor_type;location;lat;lon;timestamp;temperature;humidity
15949;DHT22;14848;50.954;6.642;2023-07-09T00:02:16;22.30;99.90
15949;DHT22;14848;50.954;6.642;2023-07-09T00:04:44;22.30;99.90
15949;DHT22;14848;50.954;6.642;2023-07-09T00:09:49;23.30;99.90
15949;DHT22;14848;50.954;6.642;2023-07-09T00:12:16;22.40;99.90
15949;DHT22;14848;50.954;6.642;2023-07-09T00:14:42;22.40;99.90
15949;DHT22;14848;50.954;6.642;2023-07-09T00:17:17;21.90;99.90
15949;DHT22;14848;50.954;6.642;2023-07-09T00:19:43;21.10;99.90
15949;DHT22;14848;50.954;6.642;2023-07-09T00:24:49;22.10;99.90
15949;DHT22;14848;50.954;6.642;2023-07-09T00:27:18;22.10;99.90
15949;DHT22;14848;50.954;6.642;2023-07-09T00:29:44;22.40;99.90
15949;DHT22;14848;50.954;6.642;2023-07-09T00:32:17;22.10;99.90
15949;DHT22;14848;50.954;6.642;2023-07-09T00:34:50;22.10;99.90
15949;DHT22;14848;50.954;6.642;2023-07-09T00:37:21;22.10;99.90
15949;DHT22;14848;50.954;6.642;2023-07-09T00:39:48;22.20;99.90
15949;DHT22;14848;50.954;6.642;2023-07-09T00:42:15;22.10;99.90
15949;DHT22;14848;50.954;6.642;2023-07-09T00:44:47;22.10;99.90
15949;DHT22;14848;50.954;6.642;2023-07-09T00:49:44;22.10;99.90
15949;DHT22;14848;50.954;6.642;2023-07-09T00:52:33;22.80;99.90
15949;DHT22;14848;50.954;6.642;2023-07-09T00:55:13;21.90;99.90
15949;DHT22;14848;50.954;6.642;2023-07-09T00:57:40;21.80;99.90
15949;DHT22;14848;50.954;6.642;2023-07-09T01:00:10;21.90;99.90
15949;DHT22;14848;50.954;6.642;2023-07-09T01:02:44;20.40;99.90
15949;DHT22;14848;50.954;6.642;2023-07-09T01:05:12;21.50;99.90
15949;DHT22;14848;50.954;6.642;2023-07-09T01:07:39;21.90;99.90
15949;DHT22;14848;50.954;6.642;2023-07-09T01:10:05;21.70;99.90
15949;DHT22;14848;50.954;6.642;2023-07-09T01:12:31;22.60;99.90
15949;DHT22;14848;50.954;6.642;2023-07-09T01:14:57;21.60;99.90
15949;DHT22;14848;50.954;6.642;2023-07-09T01:17:28;21.80;99.90
15949;DHT22;14848;50.954;6.642;2023-07-09T01:22:22;21.50;99.90
15949;DHT22;14848;50.954;6.642;2023-07-09T01:27:22;21.50;99.90
15949;DHT22;14848;50.954;6.642;2023-07-09T01:29:48;21.40;99.90
15949;DHT22;14848;50.954;6.642;2023-07-09T01:32:16;21.60;99.90
15949;DHT22;14848;50.954;6.642;2023-07-09T01:34:45;21.80;99.90
15949;DHT22;14848;50.954;6.642;2023-07-09T01:37:15;21.60;99.90
15949;DHT22;14848;50.954;6.642;2023-07-09T01:39:41;21.40;99.90
15949;DHT22;14848;50.954;6.642;2023-07-09T01:42:07;21.40;99.90
15949;DHT22;14848;50.954;6.642;2023-07-09T01:44:35;21.30;99.90
15949;DHT22;14848;50.954;6.642;2023-07-09T01:47:01;21.50;99.90
15949;DHT22;14848;50.954;6.642;2023-07-09T01:49:30;21.20;99.90
15949;DHT22;14848;50.954;6.642;2023-07-09T01:51:59;21.20;99.90
15949;DHT22;14848;50.954;6.642;2023-07-09T01:54:27;21.30;99.90
15949;DHT22;14848;50.954;6.642;2023-07-09T01:56:53;21.20;99.90
15949;DHT22;14848;50.954;6.642;2023-07-09T01:59:26;21.20;99.90
15949;DHT22;14848;50.954;6.642;2023-07-09T02:01:52;21.20;99.90
15949;DHT22;14848;50.954;6.642;2023-07-09T02:04:23;21.30;99.90
15949;DHT22;14848;50.954;6.642;2023-07-09T02:06:52;21.30;99.90
15949;DHT22;14848;50.954;6.642;2023-07-09T02:09:18;20.20;99.90
15949;DHT22;14848;50.954;6.642;2023-07-09T02:11:43;21.20;99.90
15949;DHT22;14848;50.954;6.642;2023-07-09T02:14:09;21.20;99.90
15949;DHT22;14848;50.954;6.642;2023-07-09T02:16:35;21.10;99.90
15949;DHT22;14848;50.954;6.642;2023-07-09T02:19:00;21.10;99.90
15949;DHT22;14848;50.954;6.642;2023-07-09T02:21:26;21.00;99.90
15949;DHT22;14848;50.954;6.642;2023-07-09T02:23:55;21.00;99.90
15949;DHT22;14848;50.954;6.642;2023-07-09T02:26:21;20.90;99.90
15949;DHT22;14848;50.954;6.642;2023-07-09T02:28:46;20.90;99.90
15949;DHT22;14848;50.954;6.642;2023-07-09T02:31:12;20.90;99.90
15949;DHT22;14848;50.954;6.642;2023-07-09T02:36:09;20.80;99.90
15949;DHT22;14848;50.954;6.642;2023-07-09T02:43:29;20.90;99.90
15949;DHT22;14848;50.954;6.642;2023-07-09T02:45:55;21.10;99.90
15949;DHT22;14848;50.954;6.642;2023-07-09T02:48:20;21.10;99.90
15949;DHT22;14848;50.954;6.642;2023-07-09T02:50:46;21.00;99.90
15949;DHT22;14848;50.954;6.642;2023-07-09T02:53:12;20.90;99.90
15949;DHT22;14848;50.954;6.642;2023-07-09T02:55:37;21.00;99.90
15949;DHT22;14848;50.954;6.642;2023-07-09T02:58:03;20.90;99.90
15949;DHT22;14848;50.954;6.642;2023-07-09T03:00:28;20.90;99.90
15949;DHT22;14848;50.954;6.642;2023-07-09T03:02:54;20.80;99.90
15949;DHT22;14848;50.954;6.642;2023-07-09T03:05:20;20.90;99.90
15949;DHT22;14848;50.954;6.642;2023-07-09T03:07:46;20.80;99.90
15949;DHT22;14848;50.954;6.642;2023-07-09T03:10:11;20.80;99.90
15949;DHT22;14848;50.954;6.642;2023-07-09T03:12:37;20.90;99.90
15949;DHT22;14848;50.954;6.642;2023-07-09T03:15:03;20.80;99.90
15949;DHT22;14848;50.954;6.642;2023-07-09T03:17:28;20.80;99.90
15949;DHT22;14848;50.954;6.642;2023-07-09T03:19:54;20.80;99.90
15949;DHT22;14848;50.954;6.642;2023-07-09T03:22:20;20.70;99.90
15949;DHT22;14848;50.954;6.642;2023-07-09T03:24:45;20.70;99.90
15949;DHT22;14848;50.954;6.642;2023-07-09T03:27:13;20.70;99.90
15949;DHT22;14848;50.954;6.642;2023-07-09T03:36:59;20.70;99.90
15949;DHT22;14848;50.954;6.642;2023-07-09T03:39:25;21.10;99.90
15949;DHT22;14848;50.954;6.642;2023-07-09T03:41:50;20.80;99.90
15949;DHT22;14848;50.954;6.642;2023-07-09T03:44:18;20.30;99.90
15949;DHT22;14848;50.954;6.642;2023-07-09T03:51:40;21.40;99.90
15949;DHT22;14848;50.954;6.642;2023-07-09T03:54:08;20.90;99.90
15949;DHT22;14848;50.954;6.642;2023-07-09T03:59:00;20.80;99.90
15949;DHT22;14848;50.954;6.642;2023-07-09T04:01:25;21.00;99.90
15949;DHT22;14848;50.954;6.642;2023-07-09T04:03:51;21.10;99.90
15949;DHT22;14848;50.954;6.642;2023-07-09T04:06:17;21.20;99.90
15949;DHT22;14848;50.954;6.642;2023-07-09T04:08:42;21.20;99.90
15949;DHT22;14848;50.954;6.642;2023-07-09T04:11:09;21.30;99.90
15949;DHT22;14848;50.954;6.642;2023-07-09T04:13:35;21.40;99.90
15949;DHT22;14848;50.954;6.642;2023-07-09T04:16:00;21.40;99.90
15949;DHT22;14848;50.954;6.642;2023-07-09T04:18:26;21.50;99.90
15949;DHT22;14848;50.954;6.642;2023-07-09T04:20:52;21.50;99.90
15949;DHT22;14848;50.954;6.642;2023-07-09T04:23:18;21.60;99.90
15949;DHT22;14848;50.954;6.642;2023-07-09T04:25:44;21.60;99.90
15949;DHT22;14848;50.954;6.642;2023-07-09T04:28:10;21.70;99.90
15949;DHT22;14848;50.954;6.642;2023-07-09T04:30:35;21.70;99.90
15949;DHT22;14848;50.954;6.642;2023-07-09T04:33:02;21.80;99.90
15949;DHT22;14848;50.954;6.642;2023-07-09T04:35:27;21.90;99.90
15949;DHT22;14848;50.954;6.642;2023-07-09T04:37:53;22.10;99.90
15949;DHT22;14848;50.954;6.642;2023-07-09T04:40:20;22.50;99.90
15949;DHT22;14848;50.954;6.642;2023-07-09T04:42:45;23.20;99.90
15949;DHT22;14848;50.954;6.642;2023-07-09T04:57:27;26.70;99.90
15949;DHT22;14848;50.954;6.642;2023-07-09T04:59:52;27.00;99.90
15949;DHT22;14848;50.954;6.642;2023-07-09T05:02:18;27.00;99.90
15949;DHT22;14848;50.954;6.642;2023-07-09T05:07:09;27.40;99.90
15949;DHT22;14848;50.954;6.642;2023-07-09T05:09:35;27.70;99.90
15949;DHT22;14848;50.954;6.642;2023-07-09T05:12:01;27.80;99.90
15949;DHT22;14848;50.954;6.642;2023-07-09T05:14:28;28.30;99.90
15949;DHT22;14848;50.954;6.642;2023-07-09T05:16:53;28.60;99.90
15949;DHT22;14848;50.954;6.642;2023-07-09T05:24:11;29.20;99.90
15949;DHT22;14848;50.954;6.642;2023-07-09T05:26:37;29.30;99.90
15949;DHT22;14848;50.954;6.642;2023-07-09T05:29:04;29.50;99.90
15949;DHT22;14848;50.954;6.642;2023-07-09T05:31:33;30.10;99.90
15949;DHT22;14848;50.954;6.642;2023-07-09T05:34:00;30.10;99.90
15949;DHT22;14848;50.954;6.642;2023-07-09T05:36:26;30.20;99.90
15949;DHT22;14848;50.954;6.642;2023-07-09T05:38:52;29.80;99.90
15949;DHT22;14848;50.954;6.642;2023-07-09T05:41:18;31.20;99.90
15949;DHT22;14848;50.954;6.642;2023-07-09T05:43:44;30.60;99.90
15949;DHT22;14848;50.954;6.642;2023-07-09T05:46:12;31.00;99.90
15949;DHT22;14848;50.954;6.642;2023-07-09T05:48:38;31.80;99.90
15949;DHT22;14848;50.954;6.642;2023-07-09T05:51:03;31.70;99.90
15949;DHT22;14848;50.954;6.642;2023-07-09T05:53:29;32.10;99.90
15949;DHT22;14848;50.954;6.642;2023-07-09T05:55:56;32.30;99.90
15949;DHT22;14848;50.954;6.642;2023-07-09T05:58:22;32.60;99.90
15949;DHT22;14848;50.954;6.642;2023-07-09T06:00:52;32.60;99.90
15949;DHT22;14848;50.954;6.642;2023-07-09T06:10:56;33.10;99.90
15949;DHT22;14848;50.954;6.642;2023-07-09T06:13:23;32.80;99.90
15949;DHT22;14848;50.954;6.642;2023-07-09T06:15:49;31.10;99.90
15949;DHT22;14848;50.954;6.642;2023-07-09T06:18:15;33.70;99.90
15949;DHT22;14848;50.954;6.642;2023-07-09T06:20:41;33.60;99.90
15949;DHT22;14848;50.954;6.642;2023-07-09T06:23:06;33.80;99.90
15949;DHT22;14848;50.954;6.642;2023-07-09T06:25:33;34.10;99.90
15949;DHT22;14848;50.954;6.642;2023-07-09T06:27:58;34.50;99.90
15949;DHT22;14848;50.954;6.642;2023-07-09T06:30:24;34.70;99.90
15949;DHT22;14848;50.954;6.642;2023-07-09T06:32:50;34.80;99.90
15949;DHT22;14848;50.954;6.642;2023-07-09T06:35:15;34.60;99.90
15949;DHT22;14848;50.954;6.642;2023-07-09T06:37:41;35.00;99.90
15949;DHT22;14848;50.954;6.642;2023-07-09T06:40:07;34.40;99.90
15949;DHT22;14848;50.954;6.642;2023-07-09T06:42:35;34.40;99.90
15949;DHT22;14848;50.954;6.642;2023-07-09T06:45:01;34.00;99.90
15949;DHT22;14848;50.954;6.642;2023-07-09T06:47:30;33.90;99.90
15949;DHT22;14848;50.954;6.642;2023-07-09T06:49:55;34.00;99.90
15949;DHT22;14848;50.954;6.642;2023-07-09T06:52:21;34.10;99.90
15949;DHT22;14848;50.954;6.642;2023-07-09T07:02:07;35.00;99.90
15949;DHT22;14848;50.954;6.642;2023-07-09T07:04:33;35.30;99.90
15949;DHT22;14848;50.954;6.642;2023-07-09T07:06:59;35.40;99.90
15949;DHT22;14848;50.954;6.642;2023-07-09T07:09:24;35.20;99.90
15949;DHT22;14848;50.954;6.642;2023-07-09T07:11:50;35.20;99.90
15949;DHT22;14848;50.954;6.642;2023-07-09T07:14:16;36.00;99.90
15949;DHT22;14848;50.954;6.642;2023-07-09T07:21:35;35.90;99.90
15949;DHT22;14848;50.954;6.642;2023-07-09T07:31:21;36.40;99.90
15949;DHT22;14848;50.954;6.642;2023-07-09T07:36:13;36.60;99.90
15949;DHT22;14848;50.954;6.642;2023-07-09T07:38:38;36.50;99.90
15949;DHT22;14848;50.954;6.642;2023-07-09T07:41:04;36.70;99.90
15949;DHT22;14848;50.954;6.642;2023-07-09T07:43:30;36.80;99.90
15949;DHT22;14848;50.954;6.642;2023-07-09T07:45:55;36.80;99.90
15949;DHT22;14848;50.954;6.642;2023-07-09T07:58:10;37.20;99.90
15949;DHT22;14848;50.954;6.642;2023-07-09T08:03:03;36.80;99.90
15949;DHT22;14848;50.954;6.642;2023-07-09T08:05:28;36.40;99.90
15949;DHT22;14848;50.954;6.642;2023-07-09T08:10:20;36.30;99.90
15949;DHT22;14848;50.954;6.642;2023-07-09T08:22:30;34.60;99.90
15949;DHT22;14848;50.954;6.642;2023-07-09T08:24:56;34.40;99.90
15949;DHT22;14848;50.954;6.642;2023-07-09T08:27:22;34.10;99.90
15949;DHT22;14848;50.954;6.642;2023-07-09T08:29:47;33.70;99.90
15949;DHT22;14848;50.954;6.642;2023-07-09T08:32:14;33.50;99.90
15949;DHT22;14848;50.954;6.642;2023-07-09T08:37:10;32.80;99.90
15949;DHT22;14848;50.954;6.642;2023-07-09T08:39:35;32.80;99.90
15949;DHT22;14848;50.954;6.642;2023-07-09T08:42:07;32.80;99.90
15949;DHT22;14848;50.954;6.642;2023-07-09T08:44:55;32.70;99.90
15949;DHT22;14848;50.954;6.642;2023-07-09T08:50:24;32.70;99.90
15949;DHT22;14848;50.954;6.642;2023-07-09T08:52:53;32.80;99.90
15949;DHT22;14848;50.954;6.642;2023-07-09T08:55:23;32.80;99.90
15949;DHT22;14848;50.954;6.642;2023-07-09T08:57:59;32.70;99.90
15949;DHT22;14848;50.954;6.642;2023-07-09T09:03:44;32.60;99.90
15949;DHT22;14848;50.954;6.642;2023-07-09T09:06:36;32.60;99.90
15949;DHT22;14848;50.954;6.642;2023-07-09T09:09:03;32.70;99.90
15949;DHT22;14848;50.954;6.642;2023-07-09T09:11:43;32.80;99.90
15949;DHT22;14848;50.954;6.642;2023-07-09T09:14:34;32.80;99.90
15949;DHT22;14848;50.954;6.642;2023-07-09T09:17:04;32.90;99.90
15949;DHT22;14848;50.954;6.642;2023-07-09T09:19:47;33.10;99.90
15949;DHT22;14848;50.954;6.642;2023-07-09T09:22:17;33.20;99.90
15949;DHT22;14848;50.954;6.642;2023-07-09T09:25:10;33.20;99.90
15949;DHT22;14848;50.954;6.642;2023-07-09T09:27:41;33.20;99.90
15949;DHT22;14848;50.954;6.642;2023-07-09T09:30:15;33.20;99.90
15949;DHT22;14848;50.954;6.642;2023-07-09T09:32:48;33.40;99.90
15949;DHT22;14848;50.954;6.642;2023-07-09T09:35:18;33.60;99.90
15949;DHT22;14848;50.954;6.642;2023-07-09T09:37:53;33.60;99.90
15949;DHT22;14848;50.954;6.642;2023-07-09T09:40:21;33.60;99.90
15949;DHT22;14848;50.954;6.642;2023-07-09T09:42:51;33.80;99.90
15949;DHT22;14848;50.954;6.642;2023-07-09T09:45:21;33.80;99.90
15949;DHT22;14848;50.954;6.642;2023-07-09T09:50:20;33.90;99.90
15949;DHT22;14848;50.954;6.642;2023-07-09T10:00:26;34.20;99.90
15949;DHT22;14848;50.954;6.642;2023-07-09T10:03:03;34.30;99.90
15949;DHT22;14848;50.954;6.642;2023-07-09T10:05:44;34.10;99.90
15949;DHT22;14848;50.954;6.642;2023-07-09T10:08:21;34.10;99.90
15949;DHT22;14848;50.954;6.642;2023-07-09T10:10:52;34.20;99.90
15949;DHT22;14848;50.954;6.642;2023-07-09T10:13:34;34.30;99.90
15949;DHT22;14848;50.954;6.642;2023-07-09T10:16:27;34.40;99.90
15949;DHT22;14848;50.954;6.642;2023-07-09T10:19:21;34.50;99.90
15949;DHT22;14848;50.954;6.642;2023-07-09T10:22:18;34.60;99.90
15949;DHT22;14848;50.954;6.642;2023-07-09T10:27:32;34.70;99.90
15949;DHT22;14848;50.954;6.642;2023-07-09T10:33:08;34.50;99.90
15949;DHT22;14848;50.954;6.642;2023-07-09T10:40:50;34.60;99.90
15949;DHT22;14848;50.954;6.642;2023-07-09T10:46:03;34.70;99.90
15949;DHT22;14848;50.954;6.642;2023-07-09T10:48:41;34.80;99.90
15949;DHT22;14848;50.954;6.642;2023-07-09T10:51:26;35.00;99.90
15949;DHT22;14848;50.954;6.642;2023-07-09T10:56:50;35.30;99.90
15949;DHT22;14848;50.954;6.642;2023-07-09T10:59:21;35.20;99.90
15949;DHT22;14848;50.954;6.642;2023-07-09T11:01:50;35.30;99.90
15949;DHT22;14848;50.954;6.642;2023-07-09T11:04:31;35.50;99.90
15949;DHT22;14848;50.954;6.642;2023-07-09T11:07:03;35.40;99.90
15949;DHT22;14848;50.954;6.642;2023-07-09T11:32:47;36.90;99.90
15949;DHT22;14848;50.954;6.642;2023-07-09T11:35:45;36.80;99.90
15949;DHT22;14848;50.954;6.642;2023-07-09T11:38:23;36.70;99.90
15949;DHT22;14848;50.954;6.642;2023-07-09T11:40:56;36.80;99.90
15949;DHT22;14848;50.954;6.642;2023-07-09T11:43:32;36.80;99.90
15949;DHT22;14848;50.954;6.642;2023-07-09T11:46:14;36.70;99.90
15949;DHT22;14848;50.954;6.642;2023-07-09T11:48:42;36.70;99.90
15949;DHT22;14848;50.954;6.642;2023-07-09T11:51:15;36.70;99.90
15949;DHT22;14848;50.954;6.642;2023-07-09T11:53:45;36.70;99.90
15949;DHT22;14848;50.954;6.642;2023-07-09T11:56:12;36.70;99.90
15949;DHT22;14848;50.954;6.642;2023-07-09T11:58:50;36.90;99.90
15949;DHT22;14848;50.954;6.642;2023-07-09T12:01:19;36.90;99.90
15949;DHT22;14848;50.954;6.642;2023-07-09T12:03:46;37.10;99.90
15949;DHT22;14848;50.954;6.642;2023-07-09T12:06:22;37.10;99.90
15949;DHT22;14848;50.954;6.642;2023-07-09T12:08:50;37.10;99.90
15949;DHT22;14848;50.954;6.642;2023-07-09T12:13:48;37.30;99.90
15949;DHT22;14848;50.954;6.642;2023-07-09T12:16:27;37.30;99.90
15949;DHT22;14848;50.954;6.642;2023-07-09T12:18:53;37.30;99.90
15949;DHT22;14848;50.954;6.642;2023-07-09T12:21:19;37.20;99.90
15949;DHT22;14848;50.954;6.642;2023-07-09T12:23:45;37.30;99.90
15949;DHT22;14848;50.954;6.642;2023-07-09T12:26:16;37.40;99.90
15949;DHT22;14848;50.954;6.642;2023-07-09T12:31:13;37.30;99.90
15949;DHT22;14848;50.954;6.642;2023-07-09T12:33:49;37.30;99.90
15949;DHT22;14848;50.954;6.642;2023-07-09T12:36:16;37.00;99.90
15949;DHT22;14848;50.954;6.642;2023-07-09T12:38:46;37.00;99.90
15949;DHT22;14848;50.954;6.642;2023-07-09T12:41:23;36.90;99.90
15949;DHT22;14848;50.954;6.642;2023-07-09T12:43:52;36.70;99.90
15949;DHT22;14848;50.954;6.642;2023-07-09T12:46:18;36.60;99.90
15949;DHT22;14848;50.954;6.642;2023-07-09T12:48:45;36.50;99.90
15949;DHT22;14848;50.954;6.642;2023-07-09T12:51:18;36.40;99.90
15949;DHT22;14848;50.954;6.642;2023-07-09T12:53:45;36.10;99.90
15949;DHT22;14848;50.954;6.642;2023-07-09T12:56:13;36.10;99.90
15949;DHT22;14848;50.954;6.642;2023-07-09T12:58:40;35.90;99.90
15949;DHT22;14848;50.954;6.642;2023-07-09T13:01:13;35.80;99.90
15949;DHT22;14848;50.954;6.642;2023-07-09T13:03:40;35.60;99.90
15949;DHT22;14848;50.954;6.642;2023-07-09T13:06:24;35.50;99.90
15949;DHT22;14848;50.954;6.642;2023-07-09T13:08:58;35.40;99.90
15949;DHT22;14848;50.954;6.642;2023-07-09T13:11:25;34.90;99.90
15949;DHT22;14848;50.954;6.642;2023-07-09T13:14:03;35.10;99.90
15949;DHT22;14848;50.954;6.642;2023-07-09T13:16:29;35.00;99.90
15949;DHT22;14848;50.954;6.642;2023-07-09T13:18:55;34.80;99.90
15949;DHT22;14848;50.954;6.642;2023-07-09T13:21:22;34.70;99.90
15949;DHT22;14848;50.954;6.642;2023-07-09T13:33:34;26.80;99.90
15949;DHT22;14848;50.954;6.642;2023-07-09T13:36:00;25.70;99.90
15949;DHT22;14848;50.954;6.642;2023-07-09T13:38:25;25.40;99.90
15949;DHT22;14848;50.954;6.642;2023-07-09T13:40:55;25.40;99.90
15949;DHT22;14848;50.954;6.642;2023-07-09T13:43:28;25.30;99.90
15949;DHT22;14848;50.954;6.642;2023-07-09T13:45:54;25.20;99.90
15949;DHT22;14848;50.954;6.642;2023-07-09T13:48:21;25.30;99.90
15949;DHT22;14848;50.954;6.642;2023-07-09T13:50:50;25.40;99.90
15949;DHT22;14848;50.954;6.642;2023-07-09T13:53:20;25.50;99.90
15949;DHT22;14848;50.954;6.642;2023-07-09T13:55:47;25.60;99.90
15949;DHT22;14848;50.954;6.642;2023-07-09T13:58:15;25.50;99.90
15949;DHT22;14848;50.954;6.642;2023-07-09T14:00:42;25.40;99.90
15949;DHT22;14848;50.954;6.642;2023-07-09T14:03:21;25.30;99.90
15949;DHT22;14848;50.954;6.642;2023-07-09T14:05:48;25.40;99.90
15949;DHT22;14848;50.954;6.642;2023-07-09T14:08:14;25.40;99.90
15949;DHT22;14848;50.954;6.642;2023-07-09T14:10:40;25.50;99.90
15949;DHT22;14848;50.954;6.642;2023-07-09T14:13:12;25.50;99.90
15949;DHT22;14848;50.954;6.642;2023-07-09T14:15:38;25.80;99.90
15949;DHT22;14848;50.954;6.642;2023-07-09T14:18:08;26.20;99.90
15949;DHT22;14848;50.954;6.642;2023-07-09T14:20:35;26.30;99.90
15949;DHT22;14848;50.954;6.642;2023-07-09T14:23:01;25.90;99.90
15949;DHT22;14848;50.954;6.642;2023-07-09T14:25:27;25.30;99.90
15949;DHT22;14848;50.954;6.642;2023-07-09T14:40:10;23.00;99.90
15949;DHT22;14848;50.954;6.642;2023-07-09T14:50:08;22.60;99.90
15949;DHT22;14848;50.954;6.642;2023-07-09T14:57:27;21.70;99.90
15949;DHT22;14848;50.954;6.642;2023-07-09T15:02:33;21.30;99.90
15949;DHT22;14848;50.954;6.642;2023-07-09T15:34:27;21.30;99.90
15949;DHT22;14848;50.954;6.642;2023-07-09T15:36:52;22.70;99.90
15949;DHT22;14848;50.954;6.642;2023-07-09T15:46:40;22.80;99.90
15949;DHT22;14848;50.954;6.642;2023-07-09T16:35:54;23.40;99.90
15949;DHT22;14848;50.954;6.642;2023-07-09T16:38:21;22.80;99.90
